Terminal Aerodrome Forecast
Issued by NWS

Home | Current Version | Previous Version | Text Only | Print | Product List | Glossary On
Versions: 1 2 3 4 5 6 7 8 9 10 11 12 13 14 15 16 17 18 19 20
000
FTUS43 KBIS 281100
TAFDIK
TAF
KDIK 281138Z 2812/2912 09005KT P6SM OVC080
      TEMPO 2814/2816 5SM -SN OVC025
     FM281600 09010KT 3SM -SN BR BKN012 OVC022
     FM281800 09009KT 2SM -SN BR OVC010
     FM290000 06010KT 5SM -SN BR OVC025
     FM290600 01007KT P6SM SCT020 BKN070=

USA.gov is the U.S. government's official web portal to all federal, state and local government web resources and services.